createdAt,value
2023-05-02T00:00:30.179Z,1017.33
2023-05-02T00:01:30.178Z,1017.35
2023-05-02T00:02:30.269Z,1017.34
2023-05-02T00:03:30.313Z,1017.36
2023-05-02T00:04:30.301Z,1017.34
2023-05-02T00:05:30.186Z,1017.4
2023-05-02T00:06:30.285Z,1017.4
2023-05-02T00:07:30.181Z,1017.41
2023-05-02T00:08:30.187Z,1017.42
2023-05-02T00:09:30.205Z,1017.4
2023-05-02T00:10:30.167Z,1017.44
2023-05-02T00:11:30.179Z,1017.42
2023-05-02T00:12:30.170Z,1017.43
2023-05-02T00:13:30.177Z,1017.43
2023-05-02T00:14:30.190Z,1017.45
2023-05-02T00:15:30.180Z,1017.48
2023-05-02T00:16:30.214Z,1017.48
2023-05-02T00:17:30.244Z,1017.48
2023-05-02T00:18:30.177Z,1017.41
2023-05-02T00:19:30.176Z,1017.46
2023-05-02T00:20:30.180Z,1017.43
2023-05-02T00:21:30.204Z,1017.47
2023-05-02T00:22:30.195Z,1017.5
2023-05-02T00:23:30.177Z,1017.49
2023-05-02T00:24:30.188Z,1017.5
2023-05-02T00:25:30.171Z,1017.53
2023-05-02T00:26:30.177Z,1017.46
2023-05-02T00:27:30.175Z,1017.46
2023-05-02T00:28:30.174Z,1017.43
2023-05-02T00:29:30.183Z,1017.47
2023-05-02T00:30:30.197Z,1017.47
2023-05-02T00:31:30.230Z,1017.47
2023-05-02T00:32:30.219Z,1017.48
2023-05-02T00:33:30.180Z,1017.47
2023-05-02T00:34:30.374Z,1017.48
2023-05-02T00:35:30.185Z,1017.48
2023-05-02T00:36:30.182Z,1017.46
2023-05-02T00:37:30.175Z,1017.48
2023-05-02T00:38:30.183Z,1017.5
2023-05-02T00:39:30.218Z,1017.52
2023-05-02T00:40:30.174Z,1017.53
2023-05-02T00:41:30.172Z,1017.56
2023-05-02T00:42:30.175Z,1017.53
2023-05-02T00:43:30.203Z,1017.58
2023-05-02T00:44:30.198Z,1017.54
2023-05-02T00:45:30.186Z,1017.53
2023-05-02T00:46:30.221Z,1017.6
2023-05-02T00:47:30.214Z,1017.6
2023-05-02T00:48:30.187Z,1017.61
2023-05-02T00:49:30.197Z,1017.61
2023-05-02T00:50:30.175Z,1017.6
2023-05-02T00:51:30.167Z,1017.63
2023-05-02T00:52:30.191Z,1017.6
2023-05-02T00:53:30.179Z,1017.59
2023-05-02T00:54:30.187Z,1017.64
2023-05-02T00:55:30.192Z,1017.64
2023-05-02T00:56:30.181Z,1017.63
2023-05-02T00:57:30.183Z,1017.67
2023-05-02T00:58:30.173Z,1017.71
2023-05-02T00:59:30.183Z,1017.71
2023-05-02T01:00:30.166Z,1017.72
2023-05-02T01:01:30.195Z,1017.72
2023-05-02T01:02:30.234Z,1017.72
2023-05-02T01:03:30.282Z,1017.75
2023-05-02T01:04:30.348Z,1017.76
2023-05-02T01:05:30.183Z,1017.72
2023-05-02T01:06:30.284Z,1017.77
2023-05-02T01:07:30.176Z,1017.77
2023-05-02T01:08:30.184Z,1017.85
2023-05-02T01:09:30.183Z,1017.83
2023-05-02T01:10:30.184Z,1017.81
2023-05-02T01:11:30.178Z,1017.82
2023-05-02T01:12:30.179Z,1017.84
2023-05-02T01:13:30.175Z,1017.86
2023-05-02T01:14:30.187Z,1017.8
2023-05-02T01:15:30.177Z,1017.83
2023-05-02T01:16:30.223Z,1017.84
2023-05-02T01:17:30.202Z,1017.84
2023-05-02T01:18:30.297Z,1017.88
2023-05-02T01:19:30.191Z,1017.83
2023-05-02T01:20:30.187Z,1017.82
2023-05-02T01:21:30.186Z,1017.87
2023-05-02T01:22:30.186Z,1017.86
2023-05-02T01:23:30.196Z,1017.85
2023-05-02T01:24:30.201Z,1017.89
2023-05-02T01:25:30.178Z,1017.89
2023-05-02T01:26:30.185Z,1017.83
2023-05-02T01:27:30.194Z,1017.83
2023-05-02T01:28:30.182Z,1017.85
2023-05-02T01:29:30.194Z,1017.84
2023-05-02T01:30:30.164Z,1017.88
2023-05-02T01:31:30.228Z,1017.86
2023-05-02T01:32:30.242Z,1017.86
2023-05-02T01:33:30.189Z,1017.86
2023-05-02T01:34:30.194Z,1017.9
2023-05-02T01:35:30.192Z,1017.85
2023-05-02T01:36:30.201Z,1017.87
2023-05-02T01:37:30.185Z,1017.84
2023-05-02T01:38:30.180Z,1017.87
2023-05-02T01:39:30.196Z,1017.86
2023-05-02T01:40:30.184Z,1017.87
2023-05-02T01:41:30.178Z,1017.88
2023-05-02T01:42:30.182Z,1017.89
2023-05-02T01:43:30.188Z,1017.86
2023-05-02T01:44:30.204Z,1017.87
2023-05-02T01:45:30.188Z,1017.89
2023-05-02T01:46:30.227Z,1017.91
2023-05-02T01:47:30.206Z,1017.89
2023-05-02T01:48:30.189Z,1017.93
2023-05-02T01:49:30.187Z,1017.93
2023-05-02T01:50:30.191Z,1017.91
2023-05-02T01:51:30.192Z,1017.86
2023-05-02T01:52:30.185Z,1017.92
2023-05-02T01:53:30.213Z,1017.89
2023-05-02T01:54:30.192Z,1017.9
2023-05-02T01:55:30.187Z,1017.9
2023-05-02T01:56:30.181Z,1017.9
2023-05-02T01:57:30.184Z,1017.95
2023-05-02T01:58:30.178Z,1017.9
2023-05-02T01:59:30.196Z,1017.93
2023-05-02T02:00:30.173Z,1017.89
2023-05-02T02:01:30.208Z,1017.91
2023-05-02T02:02:30.182Z,1017.9
2023-05-02T02:03:30.293Z,1017.94
2023-05-02T02:04:30.243Z,1018
2023-05-02T02:05:30.186Z,1017.95
2023-05-02T02:06:30.239Z,1017.95
2023-05-02T02:07:30.192Z,1017.99
2023-05-02T02:08:30.194Z,1017.98
2023-05-02T02:09:30.350Z,1018.01
2023-05-02T02:10:30.205Z,1018.02
2023-05-02T02:11:30.189Z,1018
2023-05-02T02:12:30.182Z,1017.94
2023-05-02T02:13:30.191Z,1017.99
2023-05-02T02:14:30.200Z,1018.02
2023-05-02T02:15:30.189Z,1018.04
2023-05-02T02:16:30.215Z,1018.01
2023-05-02T02:17:30.218Z,1018.01
2023-05-02T02:18:30.186Z,1018.06
2023-05-02T02:19:30.185Z,1018.03
2023-05-02T02:20:30.181Z,1018.04
2023-05-02T02:21:30.184Z,1018.02
2023-05-02T02:22:30.181Z,1018.04
2023-05-02T02:23:30.174Z,1018.05
2023-05-02T02:24:30.210Z,1018.06
2023-05-02T02:25:30.198Z,1018.09
2023-05-02T02:26:30.187Z,1018.07
2023-05-02T02:27:30.181Z,1018.09
2023-05-02T02:28:30.188Z,1018.06
2023-05-02T02:29:30.186Z,1018.11
2023-05-02T02:30:30.177Z,1018.12
2023-05-02T02:31:30.365Z,1018.11
2023-05-02T02:32:30.196Z,1018.13
2023-05-02T02:33:30.191Z,1018.15
2023-05-02T02:34:30.192Z,1018.14
2023-05-02T02:35:30.183Z,1018.13
2023-05-02T02:36:30.179Z,1018.1
2023-05-02T02:37:30.175Z,1018.17
2023-05-02T02:38:30.189Z,1018.15
2023-05-02T02:39:30.195Z,1018.19
2023-05-02T02:40:30.174Z,1018.22
2023-05-02T02:41:30.187Z,1018.18
2023-05-02T02:42:30.180Z,1018.18
2023-05-02T02:43:30.187Z,1018.22
2023-05-02T02:44:30.186Z,1018.25
2023-05-02T02:45:30.184Z,1018.27
2023-05-02T02:46:30.265Z,1018.25
2023-05-02T02:47:30.259Z,1018.26
2023-05-02T02:48:30.173Z,1018.3
2023-05-02T02:49:30.187Z,1018.31
2023-05-02T02:50:30.178Z,1018.29
2023-05-02T02:51:30.188Z,1018.28
2023-05-02T02:52:30.187Z,1018.31
2023-05-02T02:53:30.179Z,1018.28
2023-05-02T02:54:30.348Z,1018.28
2023-05-02T02:55:30.186Z,1018.33
2023-05-02T02:56:30.180Z,1018.33
2023-05-02T02:57:30.185Z,1018.29
2023-05-02T02:58:30.180Z,1018.31
2023-05-02T02:59:30.182Z,1018.32
2023-05-02T03:00:30.185Z,1018.34
2023-05-02T03:01:30.225Z,1018.33
2023-05-02T03:02:30.220Z,1018.34
2023-05-02T03:03:30.224Z,1018.31
2023-05-02T03:04:30.212Z,1018.31
2023-05-02T03:05:30.176Z,1018.3
2023-05-02T03:06:30.256Z,1018.32
2023-05-02T03:07:30.182Z,1018.34
2023-05-02T03:08:30.190Z,1018.36
2023-05-02T03:09:30.213Z,1018.33
2023-05-02T03:10:30.181Z,1018.37
2023-05-02T03:11:30.175Z,1018.39
2023-05-02T03:12:30.185Z,1018.4
2023-05-02T03:13:30.186Z,1018.43
2023-05-02T03:14:30.186Z,1018.41
2023-05-02T03:15:30.187Z,1018.46
2023-05-02T03:16:30.228Z,1018.46
2023-05-02T03:17:30.190Z,1018.46
2023-05-02T03:18:30.183Z,1018.49
2023-05-02T03:19:30.193Z,1018.48
2023-05-02T03:20:30.185Z,1018.48
2023-05-02T03:21:30.172Z,1018.48
2023-05-02T03:22:30.185Z,1018.5
2023-05-02T03:23:30.201Z,1018.49
2023-05-02T03:24:30.198Z,1018.48
2023-05-02T03:25:30.187Z,1018.46
2023-05-02T03:26:30.187Z,1018.48
2023-05-02T03:27:30.179Z,1018.51
2023-05-02T03:28:30.176Z,1018.49
2023-05-02T03:29:30.191Z,1018.51
2023-05-02T03:30:30.177Z,1018.49
2023-05-02T03:31:30.219Z,1018.52
2023-05-02T03:32:30.232Z,1018.52
2023-05-02T03:33:30.223Z,1018.54
2023-05-02T03:34:30.206Z,1018.49
2023-05-02T03:35:30.183Z,1018.55
2023-05-02T03:36:30.187Z,1018.51
2023-05-02T03:37:30.184Z,1018.57
2023-05-02T03:38:30.194Z,1018.59
2023-05-02T03:39:30.344Z,1018.57
2023-05-02T03:40:30.183Z,1018.59
2023-05-02T03:41:30.194Z,1018.56
2023-05-02T03:42:30.182Z,1018.56
2023-05-02T03:43:30.182Z,1018.58
2023-05-02T03:44:30.201Z,1018.6
2023-05-02T03:45:30.193Z,1018.6
2023-05-02T03:46:30.247Z,1018.59
2023-05-02T03:47:30.235Z,1018.62
2023-05-02T03:48:30.182Z,1018.64
2023-05-02T03:49:30.193Z,1018.63
2023-05-02T03:50:30.191Z,1018.65
2023-05-02T03:51:30.186Z,1018.61
2023-05-02T03:52:30.188Z,1018.65
2023-05-02T03:53:30.175Z,1018.65
2023-05-02T03:54:30.197Z,1018.7
2023-05-02T03:55:30.184Z,1018.72
2023-05-02T03:56:30.179Z,1018.7
2023-05-02T03:57:30.193Z,1018.74
2023-05-02T03:58:30.188Z,1018.71
2023-05-02T03:59:30.199Z,1018.73
2023-05-02T04:00:30.181Z,1018.69
2023-05-02T04:01:30.195Z,1018.73
2023-05-02T04:02:30.334Z,1018.74
2023-05-02T04:03:30.328Z,1018.73
2023-05-02T04:04:30.245Z,1018.77
2023-05-02T04:05:30.204Z,1018.85
2023-05-02T04:06:30.248Z,1018.85
2023-05-02T04:07:30.202Z,1018.88
2023-05-02T04:08:30.181Z,1018.89
2023-05-02T04:09:30.198Z,1018.88
2023-05-02T04:10:30.177Z,1018.89
2023-05-02T04:11:30.181Z,1018.93
2023-05-02T04:12:30.181Z,1018.88
2023-05-02T04:13:30.183Z,1018.91
2023-05-02T04:14:30.198Z,1018.97
2023-05-02T04:15:30.188Z,1018.95
2023-05-02T04:16:30.283Z,1018.92
2023-05-02T04:17:30.250Z,1018.88
2023-05-02T04:18:30.193Z,1018.92
2023-05-02T04:19:30.202Z,1018.94
2023-05-02T04:20:30.186Z,1018.95
2023-05-02T04:21:30.188Z,1018.91
2023-05-02T04:22:30.183Z,1018.93
2023-05-02T04:23:30.178Z,1018.98
2023-05-02T04:24:30.213Z,1018.98
2023-05-02T04:25:30.184Z,1019.03
2023-05-02T04:26:30.197Z,1019.03
2023-05-02T04:27:30.194Z,1019.02
2023-05-02T04:28:30.182Z,1019.05
2023-05-02T04:29:30.203Z,1019.07
2023-05-02T04:30:30.180Z,1019.05
2023-05-02T04:31:30.300Z,1019.05
2023-05-02T04:32:30.230Z,1019.08
2023-05-02T04:33:30.219Z,1019.1
2023-05-02T04:34:30.192Z,1019.11
2023-05-02T04:35:30.174Z,1019.13
2023-05-02T04:36:30.181Z,1019.16
2023-05-02T04:37:30.177Z,1019.13
2023-05-02T04:38:30.181Z,1019.19
2023-05-02T04:39:30.196Z,1019.2
2023-05-02T04:40:30.184Z,1019.18
2023-05-02T04:41:30.184Z,1019.17
2023-05-02T04:42:30.184Z,1019.17
2023-05-02T04:43:30.185Z,1019.25
2023-05-02T04:44:30.196Z,1019.22
2023-05-02T04:45:30.188Z,1019.21
2023-05-02T04:46:30.205Z,1019.27
2023-05-02T04:47:30.206Z,1019.31
2023-05-02T04:48:30.185Z,1019.33
2023-05-02T04:49:30.192Z,1019.33
2023-05-02T04:50:30.164Z,1019.35
2023-05-02T04:51:30.179Z,1019.36
2023-05-02T04:52:30.194Z,1019.41
2023-05-02T04:53:30.167Z,1019.41
2023-05-02T04:54:30.195Z,1019.39
2023-05-02T04:55:30.204Z,1019.38
2023-05-02T04:56:30.183Z,1019.47
2023-05-02T04:57:30.192Z,1019.43
2023-05-02T04:58:30.179Z,1019.47
2023-05-02T04:59:30.195Z,1019.43
2023-05-02T05:00:30.170Z,1019.49
2023-05-02T05:01:30.203Z,1019.53
2023-05-02T05:02:30.307Z,1019.57
2023-05-02T05:03:30.314Z,1019.54
2023-05-02T05:04:30.196Z,1019.51
2023-05-02T05:05:30.279Z,1019.58
2023-05-02T05:06:30.206Z,1019.57
2023-05-02T05:07:30.176Z,1019.59
2023-05-02T05:08:30.187Z,1019.58
2023-05-02T05:09:30.191Z,1019.62
2023-05-02T05:10:30.180Z,1019.63
2023-05-02T05:11:30.181Z,1019.59
2023-05-02T05:12:30.179Z,1019.61
2023-05-02T05:13:30.184Z,1019.62
2023-05-02T05:14:30.186Z,1019.66
2023-05-02T05:15:30.177Z,1019.66
2023-05-02T05:16:30.251Z,1019.66
2023-05-02T05:17:30.235Z,1019.69
2023-05-02T05:18:30.177Z,1019.76
2023-05-02T05:19:30.188Z,1019.71
2023-05-02T05:20:30.183Z,1019.7
2023-05-02T05:21:30.177Z,1019.72
2023-05-02T05:22:30.184Z,1019.7
2023-05-02T05:23:30.183Z,1019.73
2023-05-02T05:24:30.196Z,1019.73
2023-05-02T05:25:30.188Z,1019.79
2023-05-02T05:26:30.193Z,1019.82
2023-05-02T05:27:30.212Z,1019.8
2023-05-02T05:28:30.188Z,1019.87
2023-05-02T05:29:30.229Z,1019.84
2023-05-02T05:30:30.181Z,1019.88
2023-05-02T05:31:30.218Z,1019.89
2023-05-02T05:32:30.226Z,1019.92
2023-05-02T05:33:30.273Z,1019.95
2023-05-02T05:34:30.194Z,1019.92
2023-05-02T05:35:30.179Z,1019.95
2023-05-02T05:36:30.186Z,1019.96
2023-05-02T05:37:30.188Z,1019.95
2023-05-02T05:38:30.197Z,1019.96
2023-05-02T05:39:30.200Z,1019.97
2023-05-02T05:40:30.170Z,1020.02
2023-05-02T05:41:30.179Z,1020.02
2023-05-02T05:42:30.180Z,1020.02
2023-05-02T05:43:30.182Z,1020.05
2023-05-02T05:44:30.213Z,1020.04
2023-05-02T05:45:30.179Z,1019.97
2023-05-02T05:46:30.211Z,1019.96
2023-05-02T05:47:30.270Z,1019.99
2023-05-02T05:48:30.227Z,1019.96
2023-05-02T05:49:30.192Z,1019.97
2023-05-02T05:50:30.186Z,1019.98
2023-05-02T05:51:30.183Z,1020.05
2023-05-02T05:52:30.191Z,1020.06
2023-05-02T05:53:30.183Z,1020.05
2023-05-02T05:54:30.198Z,1020.02
2023-05-02T05:55:30.191Z,1020.1
2023-05-02T05:56:30.197Z,1020.1
2023-05-02T05:57:30.183Z,1020.11
2023-05-02T05:58:30.218Z,1020.14
2023-05-02T05:59:30.196Z,1020.15
2023-05-02T06:00:30.290Z,1020.19
2023-05-02T06:01:30.183Z,1020.19
2023-05-02T06:02:30.283Z,1020.25
2023-05-02T06:03:30.311Z,1020.21
2023-05-02T06:04:30.250Z,1020.17
2023-05-02T06:05:30.214Z,1020.15
2023-05-02T06:06:30.215Z,1020.21
2023-05-02T06:07:30.187Z,1020.24
2023-05-02T06:08:30.200Z,1020.28
2023-05-02T06:09:30.208Z,1020.34
2023-05-02T06:10:30.192Z,1020.29
2023-05-02T06:11:30.192Z,1020.27
2023-05-02T06:12:30.194Z,1020.33
2023-05-02T06:13:30.189Z,1020.37
2023-05-02T06:14:30.199Z,1020.29
2023-05-02T06:15:30.220Z,1020.45
2023-05-02T06:16:30.213Z,1020.4
2023-05-02T06:17:30.182Z,1020.44
2023-05-02T06:18:30.212Z,1020.47
2023-05-02T06:19:30.198Z,1020.41
2023-05-02T06:20:30.204Z,1020.39
2023-05-02T06:21:30.196Z,1020.42
2023-05-02T06:22:30.188Z,1020.42
2023-05-02T06:23:30.188Z,1020.39
2023-05-02T06:24:30.216Z,1020.4
2023-05-02T06:25:30.187Z,1020.44
2023-05-02T06:26:30.196Z,1020.43
2023-05-02T06:27:31.619Z,1020.4
2023-05-02T06:28:30.187Z,1020.45
2023-05-02T06:29:30.192Z,1020.45
2023-05-02T06:30:30.185Z,1020.43
2023-05-02T06:31:30.235Z,1020.42
2023-05-02T06:32:30.233Z,1020.45
2023-05-02T06:33:30.189Z,1020.47
2023-05-02T06:34:30.199Z,1020.43
2023-05-02T06:35:30.191Z,1020.37
2023-05-02T06:36:30.177Z,1020.46
2023-05-02T06:37:30.174Z,1020.47
2023-05-02T06:38:30.199Z,1020.5
2023-05-02T06:39:30.223Z,1020.52
2023-05-02T06:40:30.182Z,1020.55
2023-05-02T06:41:30.200Z,1020.49
2023-05-02T06:42:30.167Z,1020.49
2023-05-02T06:43:30.187Z,1020.51
2023-05-02T06:44:30.218Z,1020.52
2023-05-02T06:45:30.181Z,1020.54
2023-05-02T06:46:30.240Z,1020.55
2023-05-02T06:47:30.231Z,1020.56
2023-05-02T06:48:30.185Z,1020.59
2023-05-02T06:49:30.185Z,1020.54
2023-05-02T06:50:30.173Z,1020.58
2023-05-02T06:51:30.188Z,1020.62
2023-05-02T06:52:30.185Z,1020.67
2023-05-02T06:53:31.742Z,1020.62
2023-05-02T06:54:30.207Z,1020.68
2023-05-02T06:55:30.176Z,1020.64
2023-05-02T06:56:30.188Z,1020.68
2023-05-02T06:57:30.209Z,1020.64
2023-05-02T06:58:30.182Z,1020.69
2023-05-02T06:59:30.179Z,1020.69
2023-05-02T07:00:30.181Z,1020.69
2023-05-02T07:01:30.263Z,1020.7
2023-05-02T07:02:30.196Z,1020.78
2023-05-02T07:03:30.185Z,1020.8
2023-05-02T07:04:30.207Z,1020.73
2023-05-02T07:05:30.192Z,1020.8
2023-05-02T07:06:30.195Z,1020.78
2023-05-02T07:07:30.185Z,1020.84
2023-05-02T07:08:30.206Z,1020.88
2023-05-02T07:09:30.195Z,1020.79
2023-05-02T07:10:30.175Z,1020.83
2023-05-02T07:11:30.177Z,1020.82
2023-05-02T07:12:30.188Z,1020.9
2023-05-02T07:13:30.181Z,1020.88
2023-05-02T07:14:30.184Z,1020.93
2023-05-02T07:15:30.184Z,1020.9
2023-05-02T07:16:30.228Z,1020.92
2023-05-02T07:17:30.218Z,1020.93
2023-05-02T07:18:30.180Z,1020.89
2023-05-02T07:19:30.193Z,1020.93
2023-05-02T07:20:30.186Z,1020.93
2023-05-02T07:21:30.183Z,1020.93
2023-05-02T07:22:30.180Z,1020.93
2023-05-02T07:23:30.226Z,1020.92
2023-05-02T07:24:30.191Z,1020.96
2023-05-02T07:25:30.184Z,1020.91
2023-05-02T07:26:30.190Z,1020.99
2023-05-02T07:27:30.184Z,1020.98
2023-05-02T07:28:30.178Z,1020.97
2023-05-02T07:29:30.182Z,1020.97
2023-05-02T07:30:30.171Z,1021.01
2023-05-02T07:31:30.275Z,1021.01
2023-05-02T07:32:30.346Z,1020.99
2023-05-02T07:33:30.186Z,1021.06
2023-05-02T07:34:30.189Z,1021.07
2023-05-02T07:35:30.194Z,1021.05
2023-05-02T07:36:30.191Z,1021.04
2023-05-02T07:37:31.523Z,1021.03
2023-05-02T07:38:30.191Z,1021.04
2023-05-02T07:39:30.198Z,1021.12
2023-05-02T07:40:30.173Z,1021.09
2023-05-02T07:41:30.182Z,1021.06
2023-05-02T07:42:30.190Z,1021.06
2023-05-02T07:43:30.187Z,1021.09
2023-05-02T07:44:30.205Z,1021.09
2023-05-02T07:45:30.197Z,1021.12
2023-05-02T07:46:30.233Z,1021.15
2023-05-02T07:47:30.211Z,1021.12
2023-05-02T07:48:30.191Z,1021.14
2023-05-02T07:49:30.194Z,1021.17
2023-05-02T07:50:30.179Z,1021.12
2023-05-02T07:51:30.186Z,1021.19
2023-05-02T07:52:30.189Z,1021.17
2023-05-02T07:53:30.184Z,1021.17
2023-05-02T07:54:30.200Z,1021.2
2023-05-02T07:55:30.197Z,1021.19
2023-05-02T07:56:30.181Z,1021.25
2023-05-02T07:57:30.206Z,1021.3
2023-05-02T07:58:30.178Z,1021.32
2023-05-02T07:59:30.197Z,1021.32
2023-05-02T08:00:30.172Z,1021.34
2023-05-02T08:01:30.193Z,1021.34
2023-05-02T08:02:30.272Z,1021.39
2023-05-02T08:03:30.295Z,1021.34
2023-05-02T08:04:30.234Z,1021.39
2023-05-02T08:05:30.201Z,1021.42
2023-05-02T08:06:30.224Z,1021.41
2023-05-02T08:07:30.203Z,1021.44
2023-05-02T08:08:30.182Z,1021.45
2023-05-02T08:09:30.346Z,1021.43
2023-05-02T08:10:30.190Z,1021.44
2023-05-02T08:11:30.192Z,1021.49
2023-05-02T08:12:30.193Z,1021.5
2023-05-02T08:13:30.184Z,1021.51
2023-05-02T08:14:30.199Z,1021.59
2023-05-02T08:15:30.200Z,1021.58
2023-05-02T08:16:30.242Z,1021.6
2023-05-02T08:17:30.315Z,1021.6
2023-05-02T08:18:30.207Z,1021.6
2023-05-02T08:19:30.199Z,1021.61
2023-05-02T08:20:30.174Z,1021.66
2023-05-02T08:21:30.192Z,1021.67
2023-05-02T08:22:30.201Z,1021.68
2023-05-02T08:23:30.196Z,1021.71
2023-05-02T08:24:30.202Z,1021.75
2023-05-02T08:25:30.179Z,1021.75
2023-05-02T08:26:30.197Z,1021.84
2023-05-02T08:27:30.192Z,1021.77
2023-05-02T08:28:30.188Z,1021.81
2023-05-02T08:29:30.196Z,1021.86
2023-05-02T08:30:30.200Z,1021.88
2023-05-02T08:31:30.251Z,1021.88
2023-05-02T08:32:30.276Z,1021.83
2023-05-02T08:33:30.198Z,1021.87
2023-05-02T08:34:30.199Z,1021.88
2023-05-02T08:35:30.190Z,1021.9
2023-05-02T08:36:30.194Z,1021.91
2023-05-02T08:37:30.195Z,1021.96
2023-05-02T08:38:30.185Z,1021.92
2023-05-02T08:39:30.373Z,1021.96
2023-05-02T08:40:40.767Z,1022
2023-05-02T08:41:30.189Z,1022.02
2023-05-02T08:42:30.177Z,1022.02
2023-05-02T08:43:30.190Z,1022.01
2023-05-02T08:44:30.199Z,1022.06
2023-05-02T08:45:30.186Z,1022
2023-05-02T08:46:30.212Z,1022
2023-05-02T08:47:30.192Z,1022.08
2023-05-02T08:48:30.185Z,1022.08
2023-05-02T08:49:30.185Z,1022.08
2023-05-02T08:50:30.246Z,1022.11
2023-05-02T08:51:30.182Z,1022.07
2023-05-02T08:52:30.172Z,1022.11
2023-05-02T08:53:30.176Z,1022.12
2023-05-02T08:54:30.207Z,1022.13
2023-05-02T08:55:30.187Z,1022.13
2023-05-02T08:56:30.175Z,1022.17
2023-05-02T08:57:30.186Z,1022.18
2023-05-02T08:58:30.176Z,1022.17
2023-05-02T08:59:30.183Z,1022.24
2023-05-02T09:00:30.180Z,1022.28
2023-05-02T09:01:30.225Z,1022.3
2023-05-02T09:02:30.222Z,1022.32
2023-05-02T09:03:30.195Z,1022.33
2023-05-02T09:04:30.235Z,1022.33
2023-05-02T09:05:30.196Z,1022.33
2023-05-02T09:06:30.338Z,1022.34
2023-05-02T09:07:30.183Z,1022.34
2023-05-02T09:08:30.178Z,1022.4
2023-05-02T09:09:30.190Z,1022.41
2023-05-02T09:10:30.177Z,1022.42
2023-05-02T09:11:30.195Z,1022.49
2023-05-02T09:12:30.310Z,1022.43
2023-05-02T09:13:30.179Z,1022.45
2023-05-02T09:14:30.207Z,1022.51
2023-05-02T09:15:30.193Z,1022.48
2023-05-02T09:16:30.232Z,1022.46
2023-05-02T09:17:40.960Z,1022.5
2023-05-02T09:18:48.908Z,1022.54
2023-05-02T09:19:47.920Z,1022.47
2023-05-02T09:20:47.871Z,1022.43
2023-05-02T09:21:47.862Z,1022.43
2023-05-02T09:22:47.855Z,1022.47
2023-05-02T09:23:47.857Z,1022.56
2023-05-02T09:24:47.862Z,1022.57
2023-05-02T09:25:47.865Z,1022.61
2023-05-02T09:26:47.861Z,1022.59
2023-05-02T09:27:47.845Z,1022.6
2023-05-02T09:28:47.851Z,1022.56
2023-05-02T09:29:47.860Z,1022.59
2023-05-02T09:30:47.928Z,1022.6
2023-05-02T09:31:55.579Z,1022.68
2023-05-02T09:32:47.906Z,1022.69
2023-05-02T09:33:47.879Z,1022.72
2023-05-02T09:34:47.865Z,1022.67
2023-05-02T09:35:47.858Z,1022.67
2023-05-02T09:36:47.846Z,1022.71
2023-05-02T09:37:47.858Z,1022.7
2023-05-02T09:38:47.850Z,1022.7
2023-05-02T09:39:47.872Z,1022.66
2023-05-02T09:40:47.847Z,1022.68
2023-05-02T09:41:47.874Z,1022.76
2023-05-02T09:42:47.851Z,1022.76
2023-05-02T09:43:47.848Z,1022.76
2023-05-02T09:44:47.855Z,1022.76
2023-05-02T09:45:47.897Z,1022.7
2023-05-02T09:46:47.866Z,1022.79
2023-05-02T09:47:47.888Z,1022.66
2023-05-02T09:48:47.862Z,1022.79
2023-05-02T09:49:47.857Z,1022.76
2023-05-02T09:50:47.839Z,1022.8
2023-05-02T09:51:47.850Z,1022.84
2023-05-02T09:52:47.850Z,1022.84
2023-05-02T09:53:47.838Z,1022.9
2023-05-02T09:54:47.866Z,1022.9
2023-05-02T09:55:47.879Z,1022.84
2023-05-02T09:56:47.843Z,1022.84
2023-05-02T09:57:47.839Z,1022.85
2023-05-02T09:58:47.840Z,1022.91
2023-05-02T09:59:47.849Z,1022.96
2023-05-02T10:00:47.840Z,1022.94
2023-05-02T10:01:47.915Z,1022.98
2023-05-02T10:02:47.886Z,1022.96
2023-05-02T10:03:48.011Z,1022.91
2023-05-02T10:04:47.867Z,1022.95
2023-05-02T10:05:47.853Z,1022.97
2023-05-02T10:06:47.857Z,1022.96
2023-05-02T10:07:47.844Z,1022.98
2023-05-02T10:08:47.855Z,1022.99
2023-05-02T10:09:48.082Z,1023
2023-05-02T10:10:47.839Z,1023.05
2023-05-02T10:11:47.842Z,1023.03
2023-05-02T10:12:47.849Z,1023.07
2023-05-02T10:13:47.845Z,1023.04
2023-05-02T10:14:47.850Z,1023.05
2023-05-02T10:15:47.912Z,1023.1
2023-05-02T10:16:47.842Z,1023.12
2023-05-02T10:17:47.901Z,1023.08
2023-05-02T10:18:47.866Z,1023.06
2023-05-02T10:19:47.852Z,1023.08
2023-05-02T10:20:47.907Z,1023.13
2023-05-02T10:21:47.857Z,1023.08
2023-05-02T10:22:47.895Z,1023.13
2023-05-02T10:23:47.851Z,1023.11
2023-05-02T10:24:47.906Z,1023.15
2023-05-02T10:25:47.878Z,1023.13
2023-05-02T10:26:47.852Z,1023.16
2023-05-02T10:27:47.852Z,1023.2
2023-05-02T10:28:47.864Z,1023.2
2023-05-02T10:29:48.021Z,1023.2
2023-05-02T10:30:47.884Z,1023.21
2023-05-02T10:31:47.905Z,1023.25
2023-05-02T10:32:47.901Z,1023.27
2023-05-02T10:33:47.851Z,1023.22
2023-05-02T10:34:47.861Z,1023.19
2023-05-02T10:35:47.892Z,1023.26
2023-05-02T10:36:47.847Z,1023.24
2023-05-02T10:37:47.861Z,1023.28
2023-05-02T10:38:47.854Z,1023.34
2023-05-02T10:39:47.864Z,1023.31
2023-05-02T10:40:47.849Z,1023.36
2023-05-02T10:41:47.850Z,1023.38
2023-05-02T10:42:47.858Z,1023.38
2023-05-02T10:43:47.849Z,1023.42
2023-05-02T10:44:47.853Z,1023.39
2023-05-02T10:45:47.843Z,1023.4
2023-05-02T10:46:47.913Z,1023.41
2023-05-02T10:47:47.901Z,1023.39
2023-05-02T10:48:47.858Z,1023.42
2023-05-02T10:49:47.853Z,1023.46
2023-05-02T10:50:47.862Z,1023.45
2023-05-02T10:51:47.835Z,1023.47
2023-05-02T10:52:47.856Z,1023.45
2023-05-02T10:53:47.855Z,1023.44
2023-05-02T10:54:47.858Z,1023.52
2023-05-02T10:55:47.859Z,1023.56
2023-05-02T10:56:47.848Z,1023.56
2023-05-02T10:57:47.867Z,1023.57
2023-05-02T10:58:47.848Z,1023.59
2023-05-02T10:59:47.856Z,1023.57
2023-05-02T11:00:47.853Z,1023.59
2023-05-02T11:01:47.897Z,1023.6
2023-05-02T11:02:47.944Z,1023.57
2023-05-02T11:03:47.866Z,1023.57
2023-05-02T11:04:47.853Z,1023.51
2023-05-02T11:05:47.843Z,1023.61
2023-05-02T11:06:47.939Z,1023.63
2023-05-02T11:07:47.848Z,1023.65
2023-05-02T11:08:47.850Z,1023.64
2023-05-02T11:09:47.870Z,1023.64
2023-05-02T11:10:47.891Z,1023.65
2023-05-02T11:11:47.843Z,1023.71
2023-05-02T11:12:47.946Z,1023.69
2023-05-02T11:13:47.839Z,1023.7
2023-05-02T11:14:47.913Z,1023.7
2023-05-02T11:15:47.855Z,1023.73
2023-05-02T11:16:47.879Z,1023.66
2023-05-02T11:17:47.874Z,1023.68
2023-05-02T11:18:47.856Z,1023.68
2023-05-02T11:19:47.860Z,1023.58
2023-05-02T11:20:47.853Z,1023.59
2023-05-02T11:21:47.857Z,1023.61
2023-05-02T11:22:47.847Z,1023.6
2023-05-02T11:23:47.855Z,1023.57
2023-05-02T11:24:47.862Z,1023.58
2023-05-02T11:25:47.851Z,1023.54
2023-05-02T11:26:47.844Z,1023.61
2023-05-02T11:27:47.851Z,1023.61
2023-05-02T11:28:48.154Z,1023.64
2023-05-02T11:29:47.859Z,1023.63
2023-05-02T11:30:47.861Z,1023.62
2023-05-02T11:31:47.894Z,1023.62
2023-05-02T11:32:47.870Z,1023.65
2023-05-02T11:33:47.848Z,1023.65
2023-05-02T11:34:47.855Z,1023.67
2023-05-02T11:35:47.847Z,1023.69
2023-05-02T11:36:47.844Z,1023.7
2023-05-02T11:37:47.843Z,1023.68
2023-05-02T11:38:47.846Z,1023.67
2023-05-02T11:39:47.866Z,1023.67
2023-05-02T11:40:47.847Z,1023.72
2023-05-02T11:41:47.845Z,1023.73
2023-05-02T11:42:47.847Z,1023.73
2023-05-02T11:43:47.845Z,1023.81
2023-05-02T11:44:47.857Z,1023.76
2023-05-02T11:45:47.859Z,1023.8
2023-05-02T11:46:47.909Z,1023.81
2023-05-02T11:47:47.859Z,1023.76
2023-05-02T11:48:47.850Z,1023.83
2023-05-02T11:49:47.857Z,1023.76
2023-05-02T11:50:50.223Z,1023.73
2023-05-02T11:51:47.852Z,1023.74
2023-05-02T11:52:47.850Z,1023.77
2023-05-02T11:53:47.846Z,1023.74
2023-05-02T11:54:47.866Z,1023.76
2023-05-02T11:55:47.854Z,1023.7
2023-05-02T11:56:47.850Z,1023.75
2023-05-02T11:57:47.849Z,1023.7
2023-05-02T11:58:47.850Z,1023.72
2023-05-02T11:59:47.855Z,1023.73
2023-05-02T12:00:47.844Z,1023.75
2023-05-02T12:01:47.854Z,1023.77
2023-05-02T12:02:47.977Z,1023.77
2023-05-02T12:03:47.972Z,1023.73
2023-05-02T12:04:47.851Z,1023.76
2023-05-02T12:05:47.889Z,1023.74
2023-05-02T12:06:47.889Z,1023.76
2023-05-02T12:07:47.852Z,1023.83
2023-05-02T12:08:47.843Z,1023.75